sensor_id;sensor_type;location;lat;lon;timestamp;P1;durP1;ratioP1;P2;durP2;ratioP2
10461;SDS011;5278;42.656;23.374;2022-08-20T00:01:49;6.63;;;5.93;;
10461;SDS011;5278;42.656;23.374;2022-08-20T00:04:16;6.33;;;5.73;;
10461;SDS011;5278;42.656;23.374;2022-08-20T00:06:44;7.13;;;6.43;;
10461;SDS011;5278;42.656;23.374;2022-08-20T00:09:12;8.50;;;6.80;;
10461;SDS011;5278;42.656;23.374;2022-08-20T00:11:39;7.73;;;6.03;;
10461;SDS011;5278;42.656;23.374;2022-08-20T00:14:06;7.83;;;6.30;;
10461;SDS011;5278;42.656;23.374;2022-08-20T00:16:35;7.77;;;6.30;;
10461;SDS011;5278;42.656;23.374;2022-08-20T00:19:03;8.80;;;6.13;;
10461;SDS011;5278;42.656;23.374;2022-08-20T00:21:32;6.17;;;5.50;;
10461;SDS011;5278;42.656;23.374;2022-08-20T00:24:01;7.73;;;6.93;;
10461;SDS011;5278;42.656;23.374;2022-08-20T00:26:28;7.27;;;6.57;;
10461;SDS011;5278;42.656;23.374;2022-08-20T00:28:55;6.70;;;6.10;;
10461;SDS011;5278;42.656;23.374;2022-08-20T00:31:22;7.20;;;6.50;;
10461;SDS011;5278;42.656;23.374;2022-08-20T00:33:50;7.13;;;6.23;;
10461;SDS011;5278;42.656;23.374;2022-08-20T00:36:18;7.50;;;6.63;;
10461;SDS011;5278;42.656;23.374;2022-08-20T00:38:45;8.13;;;6.23;;
10461;SDS011;5278;42.656;23.374;2022-08-20T00:41:15;8.57;;;6.30;;
10461;SDS011;5278;42.656;23.374;2022-08-20T00:43:46;7.27;;;6.57;;
10461;SDS011;5278;42.656;23.374;2022-08-20T00:46:16;7.77;;;6.00;;
10461;SDS011;5278;42.656;23.374;2022-08-20T00:48:47;6.90;;;6.20;;
10461;SDS011;5278;42.656;23.374;2022-08-20T00:51:17;6.90;;;6.20;;
10461;SDS011;5278;42.656;23.374;2022-08-20T00:53:51;6.67;;;5.97;;
10461;SDS011;5278;42.656;23.374;2022-08-20T00:56:21;7.13;;;6.50;;
10461;SDS011;5278;42.656;23.374;2022-08-20T00:58:48;7.00;;;6.30;;
10461;SDS011;5278;42.656;23.374;2022-08-20T01:01:17;7.70;;;5.80;;
10461;SDS011;5278;42.656;23.374;2022-08-20T01:03:44;6.97;;;6.20;;
10461;SDS011;5278;42.656;23.374;2022-08-20T01:06:11;8.47;;;6.50;;
10461;SDS011;5278;42.656;23.374;2022-08-20T01:08:38;7.90;;;6.07;;
10461;SDS011;5278;42.656;23.374;2022-08-20T01:11:07;9.07;;;6.40;;
10461;SDS011;5278;42.656;23.374;2022-08-20T01:13:38;7.87;;;7.10;;
10461;SDS011;5278;42.656;23.374;2022-08-20T01:16:09;9.23;;;6.73;;
10461;SDS011;5278;42.656;23.374;2022-08-20T01:18:42;7.73;;;6.57;;
10461;SDS011;5278;42.656;23.374;2022-08-20T01:21:12;12.03;;;7.23;;
10461;SDS011;5278;42.656;23.374;2022-08-20T01:23:41;9.67;;;6.47;;
10461;SDS011;5278;42.656;23.374;2022-08-20T01:26:12;11.87;;;7.07;;
10461;SDS011;5278;42.656;23.374;2022-08-20T01:28:42;8.80;;;6.53;;
10461;SDS011;5278;42.656;23.374;2022-08-20T01:31:12;8.83;;;6.33;;
10461;SDS011;5278;42.656;23.374;2022-08-20T01:33:40;8.03;;;6.37;;
10461;SDS011;5278;42.656;23.374;2022-08-20T01:36:08;7.07;;;6.37;;
10461;SDS011;5278;42.656;23.374;2022-08-20T01:38:35;8.70;;;6.67;;
10461;SDS011;5278;42.656;23.374;2022-08-20T01:41:09;8.87;;;6.77;;
10461;SDS011;5278;42.656;23.374;2022-08-20T01:43:47;8.90;;;7.57;;
10461;SDS011;5278;42.656;23.374;2022-08-20T01:46:18;7.03;;;6.40;;
10461;SDS011;5278;42.656;23.374;2022-08-20T01:48:44;7.70;;;7.00;;
10461;SDS011;5278;42.656;23.374;2022-08-20T01:51:13;7.50;;;6.73;;
10461;SDS011;5278;42.656;23.374;2022-08-20T01:53:42;6.63;;;6.03;;
10461;SDS011;5278;42.656;23.374;2022-08-20T01:56:12;8.03;;;6.30;;
10461;SDS011;5278;42.656;23.374;2022-08-20T01:58:43;6.97;;;6.27;;
10461;SDS011;5278;42.656;23.374;2022-08-20T02:01:20;7.87;;;6.30;;
10461;SDS011;5278;42.656;23.374;2022-08-20T02:03:48;7.47;;;6.77;;
10461;SDS011;5278;42.656;23.374;2022-08-20T02:06:16;9.70;;;6.53;;
10461;SDS011;5278;42.656;23.374;2022-08-20T02:08:44;7.73;;;6.83;;
10461;SDS011;5278;42.656;23.374;2022-08-20T02:11:10;10.30;;;6.57;;
10461;SDS011;5278;42.656;23.374;2022-08-20T02:13:37;7.13;;;6.43;;
10461;SDS011;5278;42.656;23.374;2022-08-20T02:16:06;8.23;;;7.23;;
10461;SDS011;5278;42.656;23.374;2022-08-20T02:18:34;11.20;;;6.67;;
10461;SDS011;5278;42.656;23.374;2022-08-20T02:21:01;8.80;;;7.67;;
10461;SDS011;5278;42.656;23.374;2022-08-20T02:23:28;10.97;;;6.93;;
10461;SDS011;5278;42.656;23.374;2022-08-20T02:25:55;7.43;;;6.57;;
10461;SDS011;5278;42.656;23.374;2022-08-20T02:28:22;7.67;;;6.23;;
10461;SDS011;5278;42.656;23.374;2022-08-20T02:30:50;7.60;;;6.53;;
10461;SDS011;5278;42.656;23.374;2022-08-20T02:33:22;9.17;;;6.87;;
10461;SDS011;5278;42.656;23.374;2022-08-20T02:35:49;7.97;;;6.93;;
10461;SDS011;5278;42.656;23.374;2022-08-20T02:38:17;7.20;;;6.60;;
10461;SDS011;5278;42.656;23.374;2022-08-20T02:40:44;7.63;;;6.83;;
10461;SDS011;5278;42.656;23.374;2022-08-20T02:43:13;8.67;;;6.83;;
10461;SDS011;5278;42.656;23.374;2022-08-20T02:45:42;7.77;;;6.97;;
10461;SDS011;5278;42.656;23.374;2022-08-20T02:48:10;7.60;;;6.90;;
10461;SDS011;5278;42.656;23.374;2022-08-20T02:50:46;7.77;;;6.87;;
10461;SDS011;5278;42.656;23.374;2022-08-20T02:53:14;10.57;;;6.60;;
10461;SDS011;5278;42.656;23.374;2022-08-20T02:55:42;7.23;;;6.53;;
10461;SDS011;5278;42.656;23.374;2022-08-20T02:58:09;8.77;;;7.13;;
10461;SDS011;5278;42.656;23.374;2022-08-20T03:00:36;7.50;;;6.73;;
10461;SDS011;5278;42.656;23.374;2022-08-20T03:03:04;7.77;;;6.93;;
10461;SDS011;5278;42.656;23.374;2022-08-20T03:05:32;7.97;;;6.10;;
10461;SDS011;5278;42.656;23.374;2022-08-20T03:08:02;9.20;;;7.77;;
10461;SDS011;5278;42.656;23.374;2022-08-20T03:10:31;10.20;;;7.63;;
10461;SDS011;5278;42.656;23.374;2022-08-20T03:13:00;8.27;;;6.50;;
10461;SDS011;5278;42.656;23.374;2022-08-20T03:15:27;7.57;;;6.37;;
10461;SDS011;5278;42.656;23.374;2022-08-20T03:17:55;10.93;;;7.67;;
10461;SDS011;5278;42.656;23.374;2022-08-20T03:20:22;9.47;;;6.77;;
10461;SDS011;5278;42.656;23.374;2022-08-20T03:22:49;9.00;;;6.87;;
10461;SDS011;5278;42.656;23.374;2022-08-20T03:25:17;7.40;;;6.70;;
10461;SDS011;5278;42.656;23.374;2022-08-20T03:27:45;8.40;;;7.03;;
10461;SDS011;5278;42.656;23.374;2022-08-20T03:30:13;10.13;;;7.53;;
10461;SDS011;5278;42.656;23.374;2022-08-20T03:32:43;7.70;;;7.00;;
10461;SDS011;5278;42.656;23.374;2022-08-20T03:35:12;8.27;;;6.80;;
10461;SDS011;5278;42.656;23.374;2022-08-20T03:37:40;7.67;;;6.97;;
10461;SDS011;5278;42.656;23.374;2022-08-20T03:40:09;8.17;;;7.10;;
10461;SDS011;5278;42.656;23.374;2022-08-20T03:42:40;9.40;;;8.20;;
10461;SDS011;5278;42.656;23.374;2022-08-20T03:45:08;9.27;;;7.07;;
10461;SDS011;5278;42.656;23.374;2022-08-20T03:47:36;8.90;;;6.87;;
10461;SDS011;5278;42.656;23.374;2022-08-20T03:50:05;10.47;;;8.00;;
10461;SDS011;5278;42.656;23.374;2022-08-20T03:52:35;8.53;;;7.07;;
10461;SDS011;5278;42.656;23.374;2022-08-20T03:55:02;7.87;;;7.07;;
10461;SDS011;5278;42.656;23.374;2022-08-20T03:57:29;8.13;;;6.87;;
10461;SDS011;5278;42.656;23.374;2022-08-20T03:59:57;7.67;;;6.87;;
10461;SDS011;5278;42.656;23.374;2022-08-20T04:02:24;8.20;;;7.13;;
10461;SDS011;5278;42.656;23.374;2022-08-20T04:04:52;8.07;;;7.30;;
10461;SDS011;5278;42.656;23.374;2022-08-20T04:07:22;9.20;;;7.77;;
10461;SDS011;5278;42.656;23.374;2022-08-20T04:09:51;9.70;;;7.20;;
10461;SDS011;5278;42.656;23.374;2022-08-20T04:12:19;7.73;;;6.90;;
10461;SDS011;5278;42.656;23.374;2022-08-20T04:14:47;8.57;;;7.00;;
10461;SDS011;5278;42.656;23.374;2022-08-20T04:17:15;9.77;;;7.07;;
10461;SDS011;5278;42.656;23.374;2022-08-20T04:19:45;11.57;;;7.43;;
10461;SDS011;5278;42.656;23.374;2022-08-20T04:22:13;8.10;;;7.30;;
10461;SDS011;5278;42.656;23.374;2022-08-20T04:24:40;7.17;;;6.40;;
10461;SDS011;5278;42.656;23.374;2022-08-20T04:27:08;9.87;;;7.27;;
10461;SDS011;5278;42.656;23.374;2022-08-20T04:29:35;10.63;;;7.87;;
10461;SDS011;5278;42.656;23.374;2022-08-20T04:32:07;9.30;;;7.33;;
10461;SDS011;5278;42.656;23.374;2022-08-20T04:34:35;9.70;;;6.90;;
10461;SDS011;5278;42.656;23.374;2022-08-20T04:37:02;8.13;;;7.30;;
10461;SDS011;5278;42.656;23.374;2022-08-20T04:39:29;8.47;;;7.23;;
10461;SDS011;5278;42.656;23.374;2022-08-20T04:41:56;7.97;;;6.83;;
10461;SDS011;5278;42.656;23.374;2022-08-20T04:44:23;10.40;;;7.80;;
10461;SDS011;5278;42.656;23.374;2022-08-20T04:46:50;8.83;;;7.30;;
10461;SDS011;5278;42.656;23.374;2022-08-20T04:49:17;8.23;;;7.43;;
10461;SDS011;5278;42.656;23.374;2022-08-20T04:51:51;8.67;;;7.50;;
10461;SDS011;5278;42.656;23.374;2022-08-20T04:54:19;9.43;;;7.20;;
10461;SDS011;5278;42.656;23.374;2022-08-20T04:56:45;8.40;;;7.03;;
10461;SDS011;5278;42.656;23.374;2022-08-20T04:59:13;8.13;;;6.97;;
10461;SDS011;5278;42.656;23.374;2022-08-20T05:01:40;9.00;;;7.07;;
10461;SDS011;5278;42.656;23.374;2022-08-20T05:04:06;8.37;;;7.47;;
10461;SDS011;5278;42.656;23.374;2022-08-20T05:06:33;9.93;;;8.00;;
10461;SDS011;5278;42.656;23.374;2022-08-20T05:09:02;23.00;;;12.27;;
10461;SDS011;5278;42.656;23.374;2022-08-20T05:11:29;11.10;;;8.37;;
10461;SDS011;5278;42.656;23.374;2022-08-20T05:13:56;12.17;;;8.63;;
10461;SDS011;5278;42.656;23.374;2022-08-20T05:16:24;11.33;;;8.27;;
10461;SDS011;5278;42.656;23.374;2022-08-20T05:18:50;9.40;;;7.50;;
10461;SDS011;5278;42.656;23.374;2022-08-20T05:21:17;10.73;;;7.73;;
10461;SDS011;5278;42.656;23.374;2022-08-20T05:23:44;10.03;;;7.93;;
10461;SDS011;5278;42.656;23.374;2022-08-20T05:26:12;8.77;;;7.83;;
10461;SDS011;5278;42.656;23.374;2022-08-20T05:28:39;8.40;;;7.53;;
10461;SDS011;5278;42.656;23.374;2022-08-20T05:31:06;8.20;;;7.40;;
10461;SDS011;5278;42.656;23.374;2022-08-20T05:33:34;7.97;;;7.27;;
10461;SDS011;5278;42.656;23.374;2022-08-20T05:36:03;7.93;;;7.13;;
10461;SDS011;5278;42.656;23.374;2022-08-20T05:38:31;8.07;;;7.37;;
10461;SDS011;5278;42.656;23.374;2022-08-20T05:40:59;7.90;;;7.20;;
10461;SDS011;5278;42.656;23.374;2022-08-20T05:43:27;8.57;;;7.47;;
10461;SDS011;5278;42.656;23.374;2022-08-20T05:45:55;7.90;;;7.07;;
10461;SDS011;5278;42.656;23.374;2022-08-20T05:48:23;8.70;;;6.87;;
10461;SDS011;5278;42.656;23.374;2022-08-20T05:50:51;9.67;;;7.27;;
10461;SDS011;5278;42.656;23.374;2022-08-20T05:53:20;8.27;;;7.33;;
10461;SDS011;5278;42.656;23.374;2022-08-20T05:55:48;8.70;;;7.90;;
10461;SDS011;5278;42.656;23.374;2022-08-20T05:58:16;8.63;;;7.93;;
10461;SDS011;5278;42.656;23.374;2022-08-20T06:00:46;12.40;;;8.13;;
10461;SDS011;5278;42.656;23.374;2022-08-20T06:03:13;14.53;;;11.60;;
10461;SDS011;5278;42.656;23.374;2022-08-20T06:05:57;7.53;;;6.80;;
10461;SDS011;5278;42.656;23.374;2022-08-20T06:08:24;8.20;;;7.40;;
10461;SDS011;5278;42.656;23.374;2022-08-20T06:10:51;15.33;;;7.93;;
10461;SDS011;5278;42.656;23.374;2022-08-20T06:13:18;7.93;;;7.10;;
10461;SDS011;5278;42.656;23.374;2022-08-20T06:15:47;10.48;;;8.10;;
10461;SDS011;5278;42.656;23.374;2022-08-20T06:18:14;8.55;;;7.60;;
10461;SDS011;5278;42.656;23.374;2022-08-20T06:20:41;9.55;;;6.78;;
10461;SDS011;5278;42.656;23.374;2022-08-20T06:23:10;9.18;;;7.20;;
10461;SDS011;5278;42.656;23.374;2022-08-20T06:25:37;11.00;;;7.22;;
10461;SDS011;5278;42.656;23.374;2022-08-20T06:28:04;9.38;;;7.60;;
10461;SDS011;5278;42.656;23.374;2022-08-20T06:30:31;9.20;;;7.60;;
10461;SDS011;5278;42.656;23.374;2022-08-20T06:33:00;8.45;;;7.55;;
10461;SDS011;5278;42.656;23.374;2022-08-20T06:35:27;13.07;;;9.50;;
10461;SDS011;5278;42.656;23.374;2022-08-20T06:37:54;9.05;;;6.57;;
10461;SDS011;5278;42.656;23.374;2022-08-20T06:40:25;9.13;;;8.23;;
10461;SDS011;5278;42.656;23.374;2022-08-20T06:42:54;8.55;;;7.43;;
10461;SDS011;5278;42.656;23.374;2022-08-20T06:45:23;8.80;;;7.90;;
10461;SDS011;5278;42.656;23.374;2022-08-20T06:47:52;27.30;;;18.42;;
10461;SDS011;5278;42.656;23.374;2022-08-20T06:50:23;11.18;;;8.77;;
10461;SDS011;5278;42.656;23.374;2022-08-20T06:52:51;11.77;;;7.80;;
10461;SDS011;5278;42.656;23.374;2022-08-20T06:55:18;21.85;;;14.55;;
10461;SDS011;5278;42.656;23.374;2022-08-20T06:57:51;28.85;;;16.40;;
10461;SDS011;5278;42.656;23.374;2022-08-20T07:00:22;19.00;;;10.40;;
10461;SDS011;5278;42.656;23.374;2022-08-20T07:02:48;6.60;;;5.97;;
10461;SDS011;5278;42.656;23.374;2022-08-20T07:05:15;9.52;;;7.53;;
10461;SDS011;5278;42.656;23.374;2022-08-20T07:07:45;11.32;;;7.15;;
10461;SDS011;5278;42.656;23.374;2022-08-20T07:10:14;9.93;;;7.47;;
10461;SDS011;5278;42.656;23.374;2022-08-20T07:12:41;14.48;;;7.43;;
10461;SDS011;5278;42.656;23.374;2022-08-20T07:15:10;11.68;;;7.43;;
10461;SDS011;5278;42.656;23.374;2022-08-20T07:17:39;19.90;;;14.85;;
10461;SDS011;5278;42.656;23.374;2022-08-20T07:20:06;12.10;;;7.47;;
10461;SDS011;5278;42.656;23.374;2022-08-20T07:22:35;8.43;;;7.20;;
10461;SDS011;5278;42.656;23.374;2022-08-20T07:25:03;25.20;;;17.10;;
10461;SDS011;5278;42.656;23.374;2022-08-20T07:27:32;9.38;;;7.13;;
10461;SDS011;5278;42.656;23.374;2022-08-20T07:29:59;9.85;;;7.95;;
10461;SDS011;5278;42.656;23.374;2022-08-20T07:32:43;13.25;;;11.70;;
10461;SDS011;5278;42.656;23.374;2022-08-20T07:35:11;10.23;;;9.23;;
10461;SDS011;5278;42.656;23.374;2022-08-20T07:37:40;9.57;;;7.22;;
10461;SDS011;5278;42.656;23.374;2022-08-20T07:40:13;10.50;;;7.68;;
10461;SDS011;5278;42.656;23.374;2022-08-20T07:42:41;8.15;;;7.35;;
10461;SDS011;5278;42.656;23.374;2022-08-20T07:45:09;15.85;;;12.07;;
10461;SDS011;5278;42.656;23.374;2022-08-20T07:47:38;8.15;;;7.30;;
10461;SDS011;5278;42.656;23.374;2022-08-20T07:50:07;7.97;;;7.28;;
10461;SDS011;5278;42.656;23.374;2022-08-20T07:52:35;13.60;;;11.57;;
10461;SDS011;5278;42.656;23.374;2022-08-20T07:55:02;8.52;;;7.65;;
10461;SDS011;5278;42.656;23.374;2022-08-20T07:57:32;8.73;;;7.82;;
10461;SDS011;5278;42.656;23.374;2022-08-20T07:59:59;8.52;;;7.63;;
10461;SDS011;5278;42.656;23.374;2022-08-20T08:02:26;8.50;;;7.38;;
10461;SDS011;5278;42.656;23.374;2022-08-20T08:04:53;7.93;;;7.13;;
10461;SDS011;5278;42.656;23.374;2022-08-20T08:07:21;8.20;;;7.22;;
10461;SDS011;5278;42.656;23.374;2022-08-20T08:09:50;9.50;;;6.95;;
10461;SDS011;5278;42.656;23.374;2022-08-20T08:12:17;9.30;;;7.10;;
10461;SDS011;5278;42.656;23.374;2022-08-20T08:14:46;7.95;;;7.13;;
10461;SDS011;5278;42.656;23.374;2022-08-20T08:17:15;8.20;;;7.03;;
10461;SDS011;5278;42.656;23.374;2022-08-20T08:19:44;8.52;;;7.82;;
10461;SDS011;5278;42.656;23.374;2022-08-20T08:22:14;10.10;;;7.25;;
10461;SDS011;5278;42.656;23.374;2022-08-20T08:24:43;9.35;;;7.18;;
10461;SDS011;5278;42.656;23.374;2022-08-20T08:27:11;8.55;;;7.50;;
10461;SDS011;5278;42.656;23.374;2022-08-20T08:29:38;7.60;;;6.90;;
10461;SDS011;5278;42.656;23.374;2022-08-20T08:32:08;9.40;;;7.70;;
10461;SDS011;5278;42.656;23.374;2022-08-20T08:34:35;8.32;;;7.63;;
10461;SDS011;5278;42.656;23.374;2022-08-20T08:37:03;8.52;;;7.43;;
10461;SDS011;5278;42.656;23.374;2022-08-20T08:39:31;9.27;;;7.90;;
10461;SDS011;5278;42.656;23.374;2022-08-20T08:41:59;7.57;;;6.90;;
10461;SDS011;5278;42.656;23.374;2022-08-20T08:44:29;8.93;;;7.47;;
10461;SDS011;5278;42.656;23.374;2022-08-20T08:46:59;9.25;;;7.15;;
10461;SDS011;5278;42.656;23.374;2022-08-20T08:49:30;8.18;;;7.38;;
10461;SDS011;5278;42.656;23.374;2022-08-20T08:52:00;7.82;;;6.97;;
10461;SDS011;5278;42.656;23.374;2022-08-20T08:54:32;9.15;;;8.35;;
10461;SDS011;5278;42.656;23.374;2022-08-20T08:57:00;9.02;;;8.23;;
10461;SDS011;5278;42.656;23.374;2022-08-20T08:59:28;9.02;;;6.85;;
10461;SDS011;5278;42.656;23.374;2022-08-20T09:01:57;7.72;;;7.03;;
10461;SDS011;5278;42.656;23.374;2022-08-20T09:04:26;7.60;;;7.00;;
10461;SDS011;5278;42.656;23.374;2022-08-20T09:06:57;7.63;;;6.90;;
10461;SDS011;5278;42.656;23.374;2022-08-20T09:09:28;8.43;;;7.65;;
10461;SDS011;5278;42.656;23.374;2022-08-20T09:12:03;9.02;;;7.55;;
10461;SDS011;5278;42.656;23.374;2022-08-20T09:14:31;7.75;;;7.05;;
10461;SDS011;5278;42.656;23.374;2022-08-20T09:16:58;8.15;;;7.07;;
10461;SDS011;5278;42.656;23.374;2022-08-20T09:19:25;8.50;;;6.78;;
10461;SDS011;5278;42.656;23.374;2022-08-20T09:21:54;10.55;;;8.07;;
10461;SDS011;5278;42.656;23.374;2022-08-20T09:24:21;7.28;;;6.65;;
10461;SDS011;5278;42.656;23.374;2022-08-20T09:26:48;7.70;;;7.03;;
10461;SDS011;5278;42.656;23.374;2022-08-20T09:29:15;7.28;;;6.68;;
10461;SDS011;5278;42.656;23.374;2022-08-20T09:31:42;10.25;;;9.40;;
10461;SDS011;5278;42.656;23.374;2022-08-20T09:34:09;9.20;;;8.23;;
10461;SDS011;5278;42.656;23.374;2022-08-20T09:36:36;9.10;;;7.40;;
10461;SDS011;5278;42.656;23.374;2022-08-20T09:39:04;9.25;;;7.40;;
10461;SDS011;5278;42.656;23.374;2022-08-20T09:41:31;8.70;;;7.30;;
10461;SDS011;5278;42.656;23.374;2022-08-20T09:43:58;7.57;;;6.82;;
10461;SDS011;5278;42.656;23.374;2022-08-20T09:46:24;7.60;;;6.90;;
10461;SDS011;5278;42.656;23.374;2022-08-20T09:48:51;8.57;;;7.75;;
10461;SDS011;5278;42.656;23.374;2022-08-20T09:51:19;7.68;;;6.93;;
10461;SDS011;5278;42.656;23.374;2022-08-20T09:53:47;7.75;;;7.15;;
10461;SDS011;5278;42.656;23.374;2022-08-20T09:56:15;8.90;;;7.38;;
10461;SDS011;5278;42.656;23.374;2022-08-20T09:58:44;11.80;;;7.97;;
10461;SDS011;5278;42.656;23.374;2022-08-20T10:01:15;8.60;;;7.80;;
10461;SDS011;5278;42.656;23.374;2022-08-20T10:03:43;7.82;;;7.13;;
10461;SDS011;5278;42.656;23.374;2022-08-20T10:06:12;9.90;;;7.15;;
10461;SDS011;5278;42.656;23.374;2022-08-20T10:08:40;8.07;;;7.13;;
10461;SDS011;5278;42.656;23.374;2022-08-20T10:11:07;7.75;;;7.05;;
10461;SDS011;5278;42.656;23.374;2022-08-20T10:13:35;7.75;;;6.97;;
10461;SDS011;5278;42.656;23.374;2022-08-20T10:16:02;9.75;;;7.47;;
10461;SDS011;5278;42.656;23.374;2022-08-20T10:18:29;7.80;;;7.03;;
10461;SDS011;5278;42.656;23.374;2022-08-20T10:20:56;7.60;;;6.88;;
10461;SDS011;5278;42.656;23.374;2022-08-20T10:23:23;9.27;;;8.13;;
10461;SDS011;5278;42.656;23.374;2022-08-20T10:25:50;8.23;;;7.03;;
10461;SDS011;5278;42.656;23.374;2022-08-20T10:28:17;11.65;;;10.48;;
10461;SDS011;5278;42.656;23.374;2022-08-20T10:30:45;10.27;;;9.20;;
10461;SDS011;5278;42.656;23.374;2022-08-20T10:33:12;8.00;;;7.38;;
10461;SDS011;5278;42.656;23.374;2022-08-20T10:35:38;8.60;;;7.68;;
10461;SDS011;5278;42.656;23.374;2022-08-20T10:38:05;8.55;;;7.32;;
10461;SDS011;5278;42.656;23.374;2022-08-20T10:40:32;7.93;;;7.28;;
10461;SDS011;5278;42.656;23.374;2022-08-20T10:42:59;7.90;;;7.25;;
10461;SDS011;5278;42.656;23.374;2022-08-20T10:45:27;8.15;;;7.55;;
10461;SDS011;5278;42.656;23.374;2022-08-20T10:47:55;9.02;;;7.28;;
10461;SDS011;5278;42.656;23.374;2022-08-20T10:50:24;7.88;;;7.00;;
10461;SDS011;5278;42.656;23.374;2022-08-20T10:52:51;8.27;;;7.28;;
10461;SDS011;5278;42.656;23.374;2022-08-20T10:55:18;8.20;;;7.40;;
10461;SDS011;5278;42.656;23.374;2022-08-20T10:57:45;13.20;;;7.65;;
10461;SDS011;5278;42.656;23.374;2022-08-20T11:00:12;8.05;;;7.32;;
10461;SDS011;5278;42.656;23.374;2022-08-20T11:02:42;7.63;;;7.03;;
10461;SDS011;5278;42.656;23.374;2022-08-20T11:05:11;7.95;;;7.13;;
10461;SDS011;5278;42.656;23.374;2022-08-20T11:07:38;8.95;;;7.07;;
10461;SDS011;5278;42.656;23.374;2022-08-20T11:10:08;7.78;;;7.07;;
10461;SDS011;5278;42.656;23.374;2022-08-20T11:12:41;7.75;;;7.10;;
10461;SDS011;5278;42.656;23.374;2022-08-20T11:15:08;9.15;;;6.93;;
10461;SDS011;5278;42.656;23.374;2022-08-20T11:17:38;8.20;;;7.45;;
10461;SDS011;5278;42.656;23.374;2022-08-20T11:20:07;7.68;;;6.90;;
10461;SDS011;5278;42.656;23.374;2022-08-20T11:22:37;8.98;;;7.50;;
10461;SDS011;5278;42.656;23.374;2022-08-20T11:25:05;8.55;;;7.43;;
10461;SDS011;5278;42.656;23.374;2022-08-20T11:27:33;7.18;;;6.47;;
10461;SDS011;5278;42.656;23.374;2022-08-20T11:30:03;8.90;;;8.00;;
10461;SDS011;5278;42.656;23.374;2022-08-20T11:32:32;8.27;;;7.47;;
10461;SDS011;5278;42.656;23.374;2022-08-20T11:34:58;8.02;;;7.18;;
10461;SDS011;5278;42.656;23.374;2022-08-20T11:37:25;8.38;;;7.35;;
10461;SDS011;5278;42.656;23.374;2022-08-20T11:39:55;8.57;;;7.78;;
10461;SDS011;5278;42.656;23.374;2022-08-20T11:42:22;7.97;;;7.30;;
10461;SDS011;5278;42.656;23.374;2022-08-20T11:44:49;7.50;;;6.80;;
10461;SDS011;5278;42.656;23.374;2022-08-20T11:47:19;9.95;;;6.97;;
10461;SDS011;5278;42.656;23.374;2022-08-20T11:49:54;8.90;;;7.28;;
10461;SDS011;5278;42.656;23.374;2022-08-20T11:52:22;9.23;;;6.78;;
10461;SDS011;5278;42.656;23.374;2022-08-20T11:54:49;7.55;;;6.85;;
10461;SDS011;5278;42.656;23.374;2022-08-20T11:57:19;8.95;;;7.03;;
10461;SDS011;5278;42.656;23.374;2022-08-20T11:59:47;7.72;;;7.07;;
10461;SDS011;5278;42.656;23.374;2022-08-20T12:02:14;7.47;;;6.80;;
10461;SDS011;5278;42.656;23.374;2022-08-20T12:04:41;7.47;;;6.78;;
10461;SDS011;5278;42.656;23.374;2022-08-20T12:07:09;8.00;;;6.57;;
10461;SDS011;5278;42.656;23.374;2022-08-20T12:09:36;6.97;;;6.38;;
10461;SDS011;5278;42.656;23.374;2022-08-20T12:12:03;7.97;;;6.75;;
10461;SDS011;5278;42.656;23.374;2022-08-20T12:14:32;7.38;;;6.50;;
10461;SDS011;5278;42.656;23.374;2022-08-20T12:17:06;6.75;;;6.15;;
10461;SDS011;5278;42.656;23.374;2022-08-20T12:19:35;9.07;;;7.40;;
10461;SDS011;5278;42.656;23.374;2022-08-20T12:22:02;7.93;;;6.95;;
10461;SDS011;5278;42.656;23.374;2022-08-20T12:24:29;6.95;;;6.32;;
10461;SDS011;5278;42.656;23.374;2022-08-20T12:27:06;9.80;;;8.82;;
10461;SDS011;5278;42.656;23.374;2022-08-20T12:29:36;8.30;;;7.50;;
10461;SDS011;5278;42.656;23.374;2022-08-20T12:32:03;9.10;;;7.63;;
10461;SDS011;5278;42.656;23.374;2022-08-20T12:34:32;8.25;;;7.45;;
10461;SDS011;5278;42.656;23.374;2022-08-20T12:36:59;9.00;;;7.22;;
10461;SDS011;5278;42.656;23.374;2022-08-20T12:39:27;10.27;;;7.00;;
10461;SDS011;5278;42.656;23.374;2022-08-20T12:41:55;13.52;;;9.43;;
10461;SDS011;5278;42.656;23.374;2022-08-20T12:44:22;17.33;;;8.97;;
10461;SDS011;5278;42.656;23.374;2022-08-20T12:46:50;10.90;;;9.37;;
10461;SDS011;5278;42.656;23.374;2022-08-20T12:49:17;10.23;;;8.87;;
10461;SDS011;5278;42.656;23.374;2022-08-20T12:51:44;15.10;;;10.83;;
10461;SDS011;5278;42.656;23.374;2022-08-20T12:54:11;19.20;;;11.27;;
10461;SDS011;5278;42.656;23.374;2022-08-20T12:56:37;25.80;;;12.77;;
10461;SDS011;5278;42.656;23.374;2022-08-20T12:59:05;18.97;;;13.27;;
10461;SDS011;5278;42.656;23.374;2022-08-20T13:01:32;16.50;;;11.43;;
10461;SDS011;5278;42.656;23.374;2022-08-20T13:04:00;25.47;;;12.53;;
10461;SDS011;5278;42.656;23.374;2022-08-20T13:06:27;25.50;;;12.47;;
10461;SDS011;5278;42.656;23.374;2022-08-20T13:08:54;19.87;;;15.53;;
10461;SDS011;5278;42.656;23.374;2022-08-20T13:11:20;17.23;;;11.50;;
10461;SDS011;5278;42.656;23.374;2022-08-20T13:13:47;12.53;;;10.73;;
10461;SDS011;5278;42.656;23.374;2022-08-20T13:16:14;20.00;;;11.63;;
10461;SDS011;5278;42.656;23.374;2022-08-20T13:18:41;13.13;;;11.73;;
10461;SDS011;5278;42.656;23.374;2022-08-20T13:21:09;21.63;;;11.50;;
10461;SDS011;5278;42.656;23.374;2022-08-20T13:23:37;15.57;;;11.37;;
10461;SDS011;5278;42.656;23.374;2022-08-20T13:26:04;22.40;;;11.77;;
10461;SDS011;5278;42.656;23.374;2022-08-20T13:28:31;20.53;;;12.23;;
10461;SDS011;5278;42.656;23.374;2022-08-20T13:30:59;16.57;;;10.80;;
10461;SDS011;5278;42.656;23.374;2022-08-20T13:33:26;16.60;;;11.77;;
10461;SDS011;5278;42.656;23.374;2022-08-20T13:35:53;13.77;;;11.70;;
10461;SDS011;5278;42.656;23.374;2022-08-20T13:38:22;16.67;;;11.43;;
10461;SDS011;5278;42.656;23.374;2022-08-20T13:40:49;16.07;;;11.73;;
10461;SDS011;5278;42.656;23.374;2022-08-20T13:43:16;14.27;;;11.77;;
10461;SDS011;5278;42.656;23.374;2022-08-20T13:45:43;18.37;;;13.27;;
10461;SDS011;5278;42.656;23.374;2022-08-20T13:48:10;17.07;;;12.50;;
10461;SDS011;5278;42.656;23.374;2022-08-20T13:50:36;14.30;;;12.03;;
10461;SDS011;5278;42.656;23.374;2022-08-20T13:53:03;15.60;;;12.87;;
10461;SDS011;5278;42.656;23.374;2022-08-20T13:55:31;15.13;;;11.57;;
10461;SDS011;5278;42.656;23.374;2022-08-20T13:58:02;14.13;;;12.23;;
10461;SDS011;5278;42.656;23.374;2022-08-20T14:00:32;13.37;;;11.57;;
10461;SDS011;5278;42.656;23.374;2022-08-20T14:02:59;15.07;;;13.53;;
10461;SDS011;5278;42.656;23.374;2022-08-20T14:05:27;14.97;;;12.67;;
10461;SDS011;5278;42.656;23.374;2022-08-20T14:07:54;12.23;;;11.03;;
10461;SDS011;5278;42.656;23.374;2022-08-20T14:10:22;12.00;;;10.80;;
10461;SDS011;5278;42.656;23.374;2022-08-20T14:12:56;14.17;;;11.03;;
10461;SDS011;5278;42.656;23.374;2022-08-20T14:15:23;14.43;;;11.33;;
10461;SDS011;5278;42.656;23.374;2022-08-20T14:17:51;14.70;;;11.30;;
10461;SDS011;5278;42.656;23.374;2022-08-20T14:20:20;13.10;;;11.20;;
10461;SDS011;5278;42.656;23.374;2022-08-20T14:22:49;11.70;;;10.50;;
10461;SDS011;5278;42.656;23.374;2022-08-20T14:25:16;15.10;;;11.03;;
10461;SDS011;5278;42.656;23.374;2022-08-20T14:27:45;13.87;;;11.03;;
10461;SDS011;5278;42.656;23.374;2022-08-20T14:30:16;13.57;;;10.87;;
10461;SDS011;5278;42.656;23.374;2022-08-20T14:32:44;12.20;;;10.90;;
10461;SDS011;5278;42.656;23.374;2022-08-20T14:35:11;13.63;;;11.43;;
10461;SDS011;5278;42.656;23.374;2022-08-20T14:37:39;13.17;;;11.70;;
10461;SDS011;5278;42.656;23.374;2022-08-20T14:40:08;13.87;;;10.67;;
10461;SDS011;5278;42.656;23.374;2022-08-20T14:42:37;12.20;;;9.87;;
10461;SDS011;5278;42.656;23.374;2022-08-20T14:45:04;12.10;;;10.47;;
10461;SDS011;5278;42.656;23.374;2022-08-20T14:47:36;12.73;;;9.67;;